createdAt,value
2022-10-05T00:03:41.723Z,7.20
2022-10-05T00:08:22.264Z,7.00
2022-10-05T00:12:46.963Z,6.90
2022-10-05T00:17:32.264Z,6.90
2022-10-05T00:22:02.123Z,7.00
2022-10-05T00:26:27.904Z,7.10
2022-10-05T00:30:49.923Z,7.10
2022-10-05T00:35:14.043Z,7.10
2022-10-05T00:39:40.663Z,7.10
2022-10-05T00:44:39.283Z,7.10
2022-10-05T00:49:12.047Z,6.90
2022-10-05T00:54:09.156Z,6.80
2022-10-05T00:58:53.523Z,6.60
2022-10-05T01:03:53.885Z,6.60
2022-10-05T01:08:26.746Z,6.60
2022-10-05T01:13:26.056Z,6.70
2022-10-05T01:18:27.583Z,6.70
2022-10-05T01:23:23.359Z,6.80
2022-10-05T01:28:02.340Z,6.90
2022-10-05T01:32:52.746Z,7.00
2022-10-05T01:37:31.183Z,6.90
2022-10-05T01:42:18.996Z,6.90
2022-10-05T01:47:14.963Z,6.90
2022-10-05T01:52:08.944Z,6.90
2022-10-05T01:56:45.012Z,6.90
2022-10-05T02:01:41.083Z,6.80
2022-10-05T02:06:18.022Z,6.70
2022-10-05T02:10:52.164Z,6.50
2022-10-05T02:15:29.645Z,6.30
2022-10-05T02:20:00.164Z,6.30
2022-10-05T02:24:32.682Z,6.30
2022-10-05T02:29:01.662Z,6.20
2022-10-05T02:33:31.105Z,6.20
2022-10-05T02:38:41.543Z,6.10
2022-10-05T02:43:58.044Z,5.90
2022-10-05T02:48:59.143Z,5.70
2022-10-05T02:53:38.163Z,5.70
2022-10-05T02:58:15.242Z,5.60
2022-10-05T03:02:44.070Z,5.50
2022-10-05T03:07:24.682Z,5.40
2022-10-05T03:12:04.062Z,5.30
2022-10-05T03:17:16.642Z,5.20
2022-10-05T03:22:17.923Z,5.00
2022-10-05T03:27:06.254Z,5.00
2022-10-05T03:31:44.134Z,5.00
2022-10-05T03:36:19.067Z,5.00
2022-10-05T03:41:04.425Z,5.00
2022-10-05T03:45:49.004Z,4.90
2022-10-05T03:50:34.205Z,4.90
2022-10-05T03:55:06.118Z,4.80
2022-10-05T03:59:59.162Z,4.70
2022-10-05T04:04:46.605Z,4.60
2022-10-05T04:09:28.484Z,4.60
2022-10-05T04:14:21.802Z,4.50
2022-10-05T04:19:02.044Z,4.50
2022-10-05T04:23:44.883Z,4.40
2022-10-05T04:28:40.173Z,4.30
2022-10-05T04:33:09.277Z,4.30
2022-10-05T04:38:22.754Z,4.40
2022-10-05T04:43:02.550Z,4.30
2022-10-05T04:47:59.103Z,4.30
2022-10-05T04:53:06.404Z,4.20
2022-10-05T04:57:33.283Z,4.20
2022-10-05T05:02:22.577Z,4.30
2022-10-05T05:07:14.444Z,4.30
2022-10-05T05:12:15.241Z,4.30
2022-10-05T05:16:43.867Z,4.40
2022-10-05T05:21:42.404Z,4.40
2022-10-05T05:26:54.783Z,4.40
2022-10-05T05:32:07.423Z,4.40
2022-10-05T05:36:53.616Z,4.70
2022-10-05T05:41:47.983Z,5.00
2022-10-05T05:47:01.844Z,5.20
2022-10-05T05:51:43.842Z,5.50
2022-10-05T05:56:14.663Z,5.80
2022-10-05T06:01:00.456Z,6.10
2022-10-05T06:05:47.203Z,6.40
2022-10-05T06:10:30.223Z,6.90
2022-10-05T06:15:15.404Z,7.90
2022-10-05T06:19:39.303Z,9.40
2022-10-05T06:24:25.824Z,11.10
2022-10-05T06:28:56.496Z,12.60
2022-10-05T06:33:35.583Z,14.90
2022-10-05T06:38:24.508Z,16.80
2022-10-05T06:43:27.243Z,17.50
2022-10-05T06:49:06.429Z,17.00
2022-10-05T06:54:04.956Z,17.00
2022-10-05T06:59:06.791Z,18.50
2022-10-05T07:03:52.263Z,21.20
2022-10-05T07:08:43.023Z,24.50
2022-10-05T07:13:36.644Z,27.80
2022-10-05T07:18:24.183Z,30.80
2022-10-05T07:23:21.328Z,32.80
2022-10-05T07:28:09.019Z,32.60
2022-10-05T07:32:49.423Z,30.10
2022-10-05T07:37:52.263Z,28.80
2022-10-05T07:42:19.364Z,29.00
2022-10-05T07:46:59.375Z,30.20
2022-10-05T07:51:41.327Z,30.70
2022-10-05T07:56:33.363Z,30.00
2022-10-05T08:01:14.144Z,31.90
2022-10-05T08:05:42.763Z,32.10
2022-10-05T08:10:20.364Z,32.40
2022-10-05T08:15:25.305Z,33.60
2022-10-05T08:20:18.436Z,34.50
2022-10-05T08:25:02.543Z,35.90
2022-10-05T08:29:57.366Z,35.00
2022-10-05T08:34:46.907Z,34.20
2022-10-05T08:39:18.485Z,34.90
2022-10-05T08:43:56.115Z,34.80
2022-10-05T08:49:10.163Z,33.50
2022-10-05T08:53:54.183Z,33.20
2022-10-05T08:58:55.463Z,31.80
2022-10-05T09:03:54.463Z,31.30
2022-10-05T09:08:16.745Z,28.40
2022-10-05T09:13:44.923Z,26.40
2022-10-05T09:18:44.404Z,24.60
2022-10-05T09:23:14.688Z,23.60
2022-10-05T09:28:05.008Z,22.70
2022-10-05T09:32:58.123Z,22.50
2022-10-05T09:38:14.264Z,23.40
2022-10-05T09:43:10.981Z,24.10
2022-10-05T09:48:11.684Z,26.60
2022-10-05T09:53:20.483Z,29.30
2022-10-05T09:58:14.595Z,30.70
2022-10-05T10:03:02.761Z,31.00
2022-10-05T10:07:52.424Z,32.30
2022-10-05T10:12:26.763Z,33.40
2022-10-05T10:17:20.063Z,31.30
2022-10-05T10:22:00.443Z,29.50
2022-10-05T10:26:50.663Z,28.10
2022-10-05T10:31:25.063Z,26.90
2022-10-05T10:35:50.335Z,26.40
2022-10-05T10:40:30.871Z,26.70
2022-10-05T10:45:12.989Z,26.60
2022-10-05T10:50:23.304Z,26.50
2022-10-05T10:55:08.604Z,26.00
2022-10-05T11:00:15.961Z,25.30
2022-10-05T11:05:36.169Z,26.90
2022-10-05T11:10:29.104Z,29.00
2022-10-05T11:15:08.968Z,29.80
2022-10-05T11:20:05.287Z,29.90
2022-10-05T11:24:54.944Z,29.60
2022-10-05T11:29:52.723Z,29.30
2022-10-05T11:34:44.685Z,28.60
2022-10-05T11:39:52.223Z,26.90
2022-10-05T11:44:47.803Z,25.30
2022-10-05T11:50:27.503Z,24.30
2022-10-05T11:55:17.343Z,23.50
2022-10-05T12:00:22.367Z,23.20
2022-10-05T12:05:50.243Z,22.90
2022-10-05T12:10:58.312Z,22.40
2022-10-05T12:15:42.329Z,22.00
2022-10-05T12:20:36.838Z,21.60
2022-10-05T12:25:30.555Z,21.30
2022-10-05T12:30:14.189Z,21.00
2022-10-05T12:35:29.701Z,20.90
2022-10-05T12:40:13.755Z,20.90
2022-10-05T12:45:12.243Z,20.80
2022-10-05T12:49:58.843Z,20.80
2022-10-05T12:55:22.103Z,21.00
2022-10-05T13:00:02.723Z,21.00
2022-10-05T13:04:56.204Z,21.30
2022-10-05T13:09:32.506Z,21.20
2022-10-05T13:14:34.775Z,21.50
2022-10-05T13:19:22.444Z,21.60
2022-10-05T13:24:20.924Z,21.20
2022-10-05T13:29:17.383Z,21.20
2022-10-05T13:34:06.956Z,21.20
2022-10-05T13:38:52.494Z,21.20
2022-10-05T13:43:39.658Z,21.30
2022-10-05T13:48:54.226Z,21.60
2022-10-05T13:53:39.343Z,21.80
2022-10-05T13:58:33.646Z,21.90
2022-10-05T14:03:00.038Z,21.80
2022-10-05T14:07:32.443Z,21.40
2022-10-05T14:12:04.803Z,21.20
2022-10-05T14:16:27.551Z,21.10
2022-10-05T14:21:08.341Z,21.00
2022-10-05T14:25:34.624Z,20.80
2022-10-05T14:30:26.103Z,20.70
2022-10-05T14:35:10.923Z,20.60
2022-10-05T14:39:40.743Z,20.50
2022-10-05T14:44:34.946Z,20.40
2022-10-05T14:49:26.004Z,20.40
2022-10-05T14:53:59.783Z,20.30
2022-10-05T14:58:53.803Z,20.20
2022-10-05T15:03:47.110Z,20.10
2022-10-05T15:08:12.402Z,20.00
2022-10-05T15:12:47.004Z,19.90
2022-10-05T15:17:31.303Z,19.70
2022-10-05T15:22:13.623Z,19.50
2022-10-05T15:26:55.723Z,19.40
2022-10-05T15:31:40.527Z,19.30
2022-10-05T15:36:22.695Z,19.20
2022-10-05T15:41:01.538Z,19.10
2022-10-05T15:45:40.303Z,19.00
2022-10-05T15:50:27.603Z,18.90
2022-10-05T15:54:50.108Z,18.90
2022-10-05T15:59:34.263Z,18.70
2022-10-05T16:04:30.426Z,18.60
2022-10-05T16:09:34.280Z,18.40
2022-10-05T16:14:24.375Z,18.20
2022-10-05T16:18:55.583Z,18.00
2022-10-05T16:23:42.063Z,17.90
2022-10-05T16:28:26.572Z,17.80
2022-10-05T16:33:12.166Z,17.60
2022-10-05T16:37:45.702Z,17.40
2022-10-05T16:42:35.124Z,17.20
2022-10-05T16:47:41.983Z,17.10
2022-10-05T16:52:08.864Z,17.00
2022-10-05T16:56:43.542Z,16.90
2022-10-05T17:01:47.362Z,16.70
2022-10-05T17:06:35.618Z,16.60
2022-10-05T17:11:43.095Z,16.40
2022-10-05T17:16:15.330Z,16.20
2022-10-05T17:20:53.928Z,16.10
2022-10-05T17:25:27.523Z,16.00
2022-10-05T17:29:58.564Z,16.00
2022-10-05T17:34:23.944Z,15.90
2022-10-05T17:39:17.722Z,16.00
2022-10-05T17:43:41.503Z,16.00
2022-10-05T17:48:09.403Z,16.00
2022-10-05T17:52:57.700Z,15.90
2022-10-05T17:57:28.165Z,15.80
2022-10-05T18:02:40.739Z,15.80
2022-10-05T18:07:17.842Z,15.80
2022-10-05T18:11:43.776Z,15.80
2022-10-05T18:16:12.758Z,15.60
2022-10-05T18:20:35.223Z,15.50
2022-10-05T18:25:06.383Z,15.40
2022-10-05T18:30:05.702Z,15.30
2022-10-05T18:34:45.075Z,15.20
2022-10-05T18:39:52.123Z,15.20
2022-10-05T18:44:40.124Z,15.20
2022-10-05T18:49:53.463Z,15.20
2022-10-05T18:54:41.122Z,15.10
2022-10-05T18:59:15.236Z,15.00
2022-10-05T19:04:03.641Z,15.10
2022-10-05T19:08:50.018Z,15.10
2022-10-05T19:13:43.067Z,15.00
2022-10-05T19:18:36.607Z,15.10
2022-10-05T19:23:17.084Z,15.10
2022-10-05T19:27:57.301Z,15.20
2022-10-05T19:32:54.004Z,15.20
2022-10-05T19:38:09.691Z,15.20
2022-10-05T19:42:53.281Z,15.10
2022-10-05T19:47:24.840Z,15.20
2022-10-05T19:51:51.084Z,15.40
2022-10-05T19:56:31.322Z,15.50
2022-10-05T20:01:03.383Z,15.50
2022-10-05T20:05:25.964Z,15.50
2022-10-05T20:10:00.703Z,15.60
2022-10-05T20:14:58.501Z,15.50
2022-10-05T20:19:52.191Z,15.50
2022-10-05T20:24:26.115Z,15.20
2022-10-05T20:28:48.958Z,15.00
2022-10-05T20:33:14.903Z,15.00
2022-10-05T20:37:37.703Z,15.00
2022-10-05T20:42:00.603Z,15.20
2022-10-05T20:46:23.306Z,15.10
2022-10-05T20:50:45.663Z,14.90
2022-10-05T20:55:11.583Z,14.80
2022-10-05T20:59:36.088Z,14.80
2022-10-05T21:03:58.811Z,14.80
2022-10-05T21:08:21.404Z,14.80
2022-10-05T21:12:44.163Z,14.80
2022-10-05T21:17:07.143Z,14.80
2022-10-05T21:21:29.243Z,14.80
2022-10-05T21:25:51.797Z,14.90
2022-10-05T21:30:14.284Z,14.90
2022-10-05T21:34:36.434Z,14.80
2022-10-05T21:38:58.917Z,14.80
2022-10-05T21:43:21.324Z,14.80
2022-10-05T21:47:43.644Z,14.90
2022-10-05T21:52:06.345Z,15.00
2022-10-05T21:56:36.363Z,15.10
2022-10-05T22:00:58.878Z,15.20
2022-10-05T22:05:21.581Z,15.10
2022-10-05T22:09:43.763Z,15.10
2022-10-05T22:14:05.804Z,15.10
2022-10-05T22:18:28.442Z,15.10
2022-10-05T22:22:55.684Z,14.90
2022-10-05T22:27:18.684Z,14.90
2022-10-05T22:31:41.029Z,14.80
2022-10-05T22:36:05.309Z,14.60
2022-10-05T22:40:27.416Z,14.40
2022-10-05T22:44:49.768Z,14.30
2022-10-05T22:49:12.126Z,14.20
2022-10-05T22:53:35.430Z,14.50
2022-10-05T22:57:57.803Z,14.60
2022-10-05T23:02:20.378Z,14.60
2022-10-05T23:06:43.058Z,14.70
2022-10-05T23:11:23.858Z,14.60
2022-10-05T23:15:46.585Z,14.70
2022-10-05T23:20:10.605Z,14.80
2022-10-05T23:24:33.043Z,14.80
2022-10-05T23:28:55.595Z,14.90
2022-10-05T23:33:18.064Z,14.90
2022-10-05T23:37:45.063Z,15.00
2022-10-05T23:42:07.485Z,15.00
2022-10-05T23:46:29.859Z,15.00
2022-10-05T23:50:53.146Z,15.00
2022-10-05T23:55:15.656Z,14.90
2022-10-05T23:59:38.005Z,14.80
